Time;durP1;ratioP1;P1;durP2;ratioP2;P2;SDS_P1;SDS_P2;PMS_P1;PMS_P2;Temp;Humidity;BMP_temperature;BMP_pressure;BME280_temperature;BME280_humidity;BME280_pressure;Samples;Min_cycle;Max_cycle;Signal;HPM_P1;HPM_P2
2022/12/27 00:02:17;;;;;;;9.77;2.55;;;;;;;;;;5023277;28;20042;-74
2022/12/27 00:04:43;;;;;;;11.98;3.10;;;;;;;;;;4994783;28;20054;-74
2022/12/27 00:07:09;;;;;;;8.93;2.80;;;;;;;;;;5010775;28;20190;-74
2022/12/27 00:09:35;;;;;;;9.40;2.90;;;;;;;;;;4995554;28;20168;-73
2022/12/27 00:12:01;;;;;;;8.95;3.45;;;;;;;;;;4995119;28;20414;-74
2022/12/27 00:14:27;;;;;;;15.32;3.53;;;;;;;;;;5005921;28;20053;-74
2022/12/27 00:16:53;;;;;;;14.00;3.80;;;;;;;;;;5021585;28;20129;-74
2022/12/27 00:19:20;;;;;;;15.10;3.58;;;;;;;;;;5015641;28;20085;-74
2022/12/27 00:21:46;;;;;;;10.48;2.97;;;;;;;;;;4994818;28;20042;-74
2022/12/27 00:24:12;;;;;;;10.02;3.10;;;;;;;;;;4995493;28;20712;-74
2022/12/27 00:26:38;;;;;;;14.13;2.83;;;;;;;;;;5006438;28;20042;-74
2022/12/27 00:29:04;;;;;;;11.45;2.80;;;;;;;;;;5004696;28;20042;-74
2022/12/27 00:31:31;;;;;;;6.95;2.50;;;;;;;;;;5012531;28;20061;-73
2022/12/27 00:34:00;;;;;;;13.43;3.17;;;;;;;;;;5008678;28;20045;-74
2022/12/27 00:36:28;;;;;;;10.82;3.13;;;;;;;;;;5013624;28;20045;-74
2022/12/27 00:38:55;;;;;;;12.60;3.25;;;;;;;;;;5012169;28;20041;-74
2022/12/27 00:41:22;;;;;;;11.43;2.85;;;;;;;;;;4999147;28;20088;-74
2022/12/27 00:43:48;;;;;;;10.48;2.70;;;;;;;;;;4998432;28;20132;-74
2022/12/27 00:46:14;;;;;;;11.45;2.40;;;;;;;;;;5006244;28;20462;-74
2022/12/27 00:48:40;;;;;;;16.98;3.28;;;;;;;;;;4994023;28;20049;-74
2022/12/27 00:51:33;;;;;;;6.28;3.00;;;;;;;;;;4995180;28;20498;-74
2022/12/27 00:53:59;;;;;;;6.85;2.35;;;;;;;;;;4999862;28;20064;-74
2022/12/27 00:56:27;;;;;;;11.15;2.47;;;;;;;;;;5015751;28;20048;-74
2022/12/27 00:58:53;;;;;;;10.00;2.85;;;;;;;;;;5012539;28;20072;-73
2022/12/27 01:01:20;;;;;;;8.15;2.30;;;;;;;;;;5012828;28;20046;-73
2022/12/27 01:03:46;;;;;;;9.82;3.15;;;;;;;;;;5005137;28;20097;-74
2022/12/27 01:06:14;;;;;;;17.17;3.35;;;;;;;;;;5009103;28;20061;-74
2022/12/27 01:08:41;;;;;;;8.38;2.97;;;;;;;;;;5007543;28;20034;-74
2022/12/27 01:11:08;;;;;;;5.85;2.03;;;;;;;;;;5015326;28;20067;-73
2022/12/27 01:13:34;;;;;;;7.97;2.70;;;;;;;;;;5008156;28;20121;-73
2022/12/27 01:16:00;;;;;;;22.00;3.00;;;;;;;;;;5001118;28;20058;-73
2022/12/27 01:18:27;;;;;;;15.25;2.60;;;;;;;;;;5004416;28;20093;-73
2022/12/27 01:20:53;;;;;;;10.27;3.10;;;;;;;;;;5002676;28;20128;-73
2022/12/27 01:23:19;;;;;;;9.55;2.78;;;;;;;;;;4992681;28;20478;-74
2022/12/27 01:25:45;;;;;;;11.23;3.00;;;;;;;;;;4989646;28;20164;-74
2022/12/27 01:28:11;;;;;;;14.70;2.75;;;;;;;;;;4993569;28;20061;-74
2022/12/27 01:30:37;;;;;;;11.65;2.65;;;;;;;;;;4993223;28;20042;-74
2022/12/27 01:33:03;;;;;;;9.18;2.50;;;;;;;;;;4997789;28;20466;-73
2022/12/27 01:35:29;;;;;;;7.50;2.55;;;;;;;;;;5015844;28;20096;-74
2022/12/27 01:37:55;;;;;;;8.27;2.75;;;;;;;;;;4980634;28;20045;-74
2022/12/27 01:40:25;;;;;;;7.70;2.28;;;;;;;;;;5015468;28;20045;-74
2022/12/27 01:42:51;;;;;;;8.52;2.55;;;;;;;;;;5002935;28;20080;-74
2022/12/27 01:45:18;;;;;;;11.57;2.70;;;;;;;;;;4996987;28;20041;-74
2022/12/27 01:47:44;;;;;;;10.02;2.83;;;;;;;;;;4993883;28;20125;-74
2022/12/27 01:50:28;;;;;;;10.65;2.80;;;;;;;;;;4997761;28;20049;-74
2022/12/27 01:53:03;;;;;;;9.95;2.63;;;;;;;;;;4993073;28;20125;-74
2022/12/27 01:55:38;;;;;;;13.17;3.50;;;;;;;;;;4984315;28;20038;-74
2022/12/27 01:58:06;;;;;;;11.40;2.92;;;;;;;;;;5014421;28;20049;-74
2022/12/27 02:00:32;;;;;;;14.27;3.28;;;;;;;;;;4995825;28;20042;-74
2022/12/27 02:02:59;;;;;;;13.43;2.65;;;;;;;;;;5011369;28;20064;-74
2022/12/27 02:05:25;;;;;;;8.00;2.95;;;;;;;;;;5013526;28;20065;-74
2022/12/27 02:08:07;;;;;;;14.93;3.50;;;;;;;;;;5015416;28;20050;-74
2022/12/27 02:10:33;;;;;;;15.60;3.80;;;;;;;;;;5005384;28;20120;-73
2022/12/27 02:12:59;;;;;;;13.77;3.40;;;;;;;;;;4996714;28;20046;-74
2022/12/27 02:15:25;;;;;;;15.45;3.17;;;;;;;;;;5009187;28;20076;-74
2022/12/27 02:17:51;;;;;;;12.05;2.92;;;;;;;;;;5018509;28;20085;-74
2022/12/27 02:20:20;;;;;;;6.63;2.53;;;;;;;;;;5015379;28;20057;-74
2022/12/27 02:25:54;;;;;;;7.32;3.13;;;;;;;;;;5000832;28;20054;-73
2022/12/27 02:28:26;;;;;;;12.15;3.35;;;;;;;;;;4992428;28;20091;-74
2022/12/27 02:30:55;;;;;;;8.05;2.55;;;;;;;;;;4996179;28;20501;-74
2022/12/27 02:33:24;;;;;;;8.75;3.25;;;;;;;;;;4995916;28;20088;-74
2022/12/27 02:35:54;;;;;;;10.25;2.92;;;;;;;;;;4996720;28;20041;-74
2022/12/27 02:38:27;;;;;;;14.38;3.30;;;;;;;;;;5014541;28;20168;-73
2022/12/27 02:55:07;;;;;;;11.20;3.50;;;;;;;;;;4997274;28;20041;-73
2022/12/27 02:57:33;;;;;;;11.40;3.45;;;;;;;;;;5012228;28;20120;-73
2022/12/27 03:03:27;;;;;;;9.35;3.22;;;;;;;;;;5014892;28;20069;-73
2022/12/27 03:07:01;;;;;;;8.02;2.83;;;;;;;;;;5010732;28;20050;-73
2022/12/27 03:17:47;;;;;;;12.95;2.92;;;;;;;;;;4936451;29;20055;-74
2022/12/27 03:26:04;;;;;;;10.43;2.80;;;;;;;;;;4895296;29;20100;-73
2022/12/27 03:39:49;;;;;;;11.48;3.45;;;;;;;;;;4895489;29;20053;-74
2022/12/27 03:45:07;;;;;;;13.00;3.08;;;;;;;;;;4947738;29;20538;-74
2022/12/27 03:47:53;;;;;;;11.32;2.95;;;;;;;;;;4952913;29;20134;-74
2022/12/27 03:50:31;;;;;;;8.27;2.88;;;;;;;;;;4936183;29;20054;-74
2022/12/27 03:52:57;;;;;;;11.20;3.20;;;;;;;;;;4956348;28;20500;-74
2022/12/27 03:55:23;;;;;;;10.50;2.80;;;;;;;;;;4951750;28;20058;-74
2022/12/27 03:57:49;;;;;;;11.30;3.55;;;;;;;;;;4930844;29;20087;-74
2022/12/27 04:00:15;;;;;;;10.38;2.60;;;;;;;;;;4982571;28;20081;-74
2022/12/27 04:02:41;;;;;;;8.75;2.85;;;;;;;;;;4992844;28;20081;-74
2022/12/27 04:05:07;;;;;;;8.90;2.45;;;;;;;;;;4994260;28;20112;-73
2022/12/27 04:07:33;;;;;;;5.43;1.90;;;;;;;;;;4976602;28;20081;-73
2022/12/27 04:34:42;;;;;;;7.03;2.50;;;;;;;;;;5021377;28;20046;-73
2022/12/27 04:37:10;;;;;;;9.18;2.53;;;;;;;;;;4995666;28;20049;-73
2022/12/27 04:39:36;;;;;;;7.10;2.33;;;;;;;;;;5013207;28;20046;-73
2022/12/27 04:56:06;;;;;;;6.70;2.75;;;;;;;;;;4995517;28;20515;-74
2022/12/27 04:58:32;;;;;;;10.85;2.90;;;;;;;;;;4994462;28;20077;-74
2022/12/27 05:03:45;;;;;;;9.77;2.57;;;;;;;;;;4994733;28;20399;-74
2022/12/27 05:06:11;;;;;;;12.45;3.25;;;;;;;;;;5009816;28;20625;-74
2022/12/27 05:14:12;;;;;;;9.68;2.90;;;;;;;;;;5015901;28;20071;-74
2022/12/27 05:16:39;;;;;;;9.05;2.90;;;;;;;;;;5009616;28;20053;-74
2022/12/27 05:19:06;;;;;;;10.15;2.83;;;;;;;;;;4998875;28;20054;-74
2022/12/27 05:25:33;;;;;;;10.32;2.70;;;;;;;;;;4998235;28;20564;-74
2022/12/27 05:27:10;;;;;;;7.00;2.72;;;;;;;;;;4991972;28;20397;-74
2022/12/27 05:29:36;;;;;;;10.45;3.03;;;;;;;;;;4987747;28;20529;-75
2022/12/27 05:32:02;;;;;;;8.98;3.35;;;;;;;;;;5012171;28;20069;-75
2022/12/27 05:34:28;;;;;;;10.77;2.85;;;;;;;;;;5016422;28;20046;-75
2022/12/27 05:36:54;;;;;;;12.88;2.92;;;;;;;;;;4997625;28;20042;-74
2022/12/27 05:39:20;;;;;;;8.30;2.85;;;;;;;;;;4998815;28;20041;-75
2022/12/27 05:41:46;;;;;;;10.63;4.07;;;;;;;;;;5015130;28;20049;-75
2022/12/27 05:44:12;;;;;;;12.10;3.00;;;;;;;;;;5017719;28;20042;-74
2022/12/27 05:46:38;;;;;;;13.32;3.42;;;;;;;;;;5016021;28;20048;-74
2022/12/27 05:49:04;;;;;;;13.40;3.65;;;;;;;;;;5015925;28;20122;-75
2022/12/27 05:51:30;;;;;;;15.35;3.38;;;;;;;;;;4998197;28;20045;-74
2022/12/27 05:53:56;;;;;;;11.98;3.95;;;;;;;;;;5016377;28;20034;-74
2022/12/27 05:56:22;;;;;;;13.38;3.33;;;;;;;;;;4998470;28;20044;-74
2022/12/27 05:58:52;;;;;;;15.18;3.60;;;;;;;;;;4998251;28;20046;-75
2022/12/27 06:01:18;;;;;;;10.82;3.10;;;;;;;;;;5020934;28;20041;-75
2022/12/27 06:03:44;;;;;;;11.93;3.05;;;;;;;;;;4997729;28;20466;-75
2022/12/27 06:06:11;;;;;;;8.43;2.70;;;;;;;;;;4997749;28;20077;-75
2022/12/27 06:08:37;;;;;;;9.68;2.50;;;;;;;;;;5014932;28;20478;-75
2022/12/27 06:11:06;;;;;;;9.80;2.67;;;;;;;;;;5015830;28;20037;-74
2022/12/27 06:13:33;;;;;;;9.85;3.08;;;;;;;;;;5007202;28;20453;-74
2022/12/27 06:16:00;;;;;;;9.75;2.55;;;;;;;;;;4979785;28;20079;-74
2022/12/27 06:18:26;;;;;;;10.13;2.78;;;;;;;;;;5014916;28;20510;-74
2022/12/27 06:20:52;;;;;;;12.05;3.15;;;;;;;;;;5015806;28;20050;-74
2022/12/27 06:23:18;;;;;;;11.85;2.70;;;;;;;;;;5009898;28;20126;-74
2022/12/27 06:25:44;;;;;;;11.75;3.20;;;;;;;;;;5014889;28;20174;-74
2022/12/27 06:28:10;;;;;;;10.13;2.92;;;;;;;;;;5003117;28;20125;-74
2022/12/27 06:30:36;;;;;;;11.18;2.83;;;;;;;;;;5013554;28;20176;-74
2022/12/27 06:33:02;;;;;;;9.23;2.90;;;;;;;;;;4975647;28;20043;-74
2022/12/27 06:35:28;;;;;;;13.48;2.97;;;;;;;;;;5011145;28;20045;-74
2022/12/27 06:37:54;;;;;;;13.63;3.15;;;;;;;;;;4996330;28;20053;-74
2022/12/27 06:40:20;;;;;;;9.20;2.70;;;;;;;;;;5007382;28;20073;-74
2022/12/27 06:42:46;;;;;;;12.15;3.20;;;;;;;;;;5002738;28;20073;-74
2022/12/27 06:45:12;;;;;;;12.50;3.33;;;;;;;;;;5024776;28;20041;-74
2022/12/27 06:47:38;;;;;;;13.02;3.22;;;;;;;;;;5015302;28;20053;-74
2022/12/27 06:50:05;;;;;;;16.10;3.40;;;;;;;;;;4997306;28;20042;-74
2022/12/27 06:52:31;;;;;;;12.82;3.15;;;;;;;;;;5004276;28;20497;-74
2022/12/27 06:54:57;;;;;;;11.35;3.70;;;;;;;;;;5014837;28;20069;-74
2022/12/27 06:57:23;;;;;;;16.08;3.88;;;;;;;;;;5005520;28;20038;-74
2022/12/27 06:59:49;;;;;;;11.45;3.10;;;;;;;;;;5007149;28;20046;-79
2022/12/27 07:02:15;;;;;;;14.13;3.65;;;;;;;;;;5017609;28;20117;-79
2022/12/27 07:04:41;;;;;;;13.82;3.47;;;;;;;;;;5000202;28;20523;-74
2022/12/27 07:07:07;;;;;;;8.85;3.17;;;;;;;;;;5007272;28;20045;-75
2022/12/27 07:09:33;;;;;;;11.80;2.97;;;;;;;;;;4995496;28;20034;-75
2022/12/27 07:11:59;;;;;;;11.00;2.97;;;;;;;;;;4993357;28;20046;-75
2022/12/27 07:14:25;;;;;;;14.27;3.58;;;;;;;;;;5020838;28;20041;-75
2022/12/27 07:16:51;;;;;;;9.63;3.08;;;;;;;;;;4994146;28;20108;-75
2022/12/27 07:19:17;;;;;;;9.10;2.90;;;;;;;;;;5010070;28;20106;-75
2022/12/27 07:21:43;;;;;;;10.63;3.20;;;;;;;;;;5013253;28;20073;-75
2022/12/27 07:24:09;;;;;;;11.60;3.65;;;;;;;;;;5010266;28;20422;-75
2022/12/27 07:26:36;;;;;;;11.90;4.15;;;;;;;;;;4996032;28;20516;-75
2022/12/27 07:29:02;;;;;;;12.73;3.42;;;;;;;;;;5019190;28;20760;-75
2022/12/27 07:31:29;;;;;;;9.48;3.42;;;;;;;;;;5012645;28;20437;-77
2022/12/27 07:33:56;;;;;;;8.80;2.58;;;;;;;;;;5012939;28;20394;-75
2022/12/27 07:36:24;;;;;;;13.35;3.53;;;;;;;;;;5005282;28;20043;-75
2022/12/27 07:38:50;;;;;;;9.98;3.03;;;;;;;;;;4992699;28;20534;-74
2022/12/27 07:41:17;;;;;;;9.27;2.75;;;;;;;;;;5013929;28;20100;-74
2022/12/27 07:43:43;;;;;;;12.40;3.03;;;;;;;;;;5013428;28;20042;-74
2022/12/27 07:46:17;;;;;;;9.27;2.85;;;;;;;;;;5013559;28;20046;-74
2022/12/27 07:48:43;;;;;;;12.60;3.47;;;;;;;;;;5005116;28;20393;-74
2022/12/27 07:51:09;;;;;;;12.80;3.45;;;;;;;;;;5014034;28;20046;-74
2022/12/27 07:53:36;;;;;;;10.00;3.15;;;;;;;;;;5010968;28;20041;-74
2022/12/27 07:56:06;;;;;;;11.20;3.10;;;;;;;;;;5014113;28;20411;-74
2022/12/27 07:58:35;;;;;;;11.25;3.42;;;;;;;;;;5013735;28;20045;-75
2022/12/27 08:01:02;;;;;;;11.25;3.33;;;;;;;;;;5015261;28;20076;-74
2022/12/27 08:03:28;;;;;;;9.98;3.15;;;;;;;;;;5011363;28;20045;-74
2022/12/27 08:05:54;;;;;;;10.73;3.35;;;;;;;;;;5013334;28;20050;-74
2022/12/27 08:08:24;;;;;;;10.32;3.80;;;;;;;;;;5017883;28;20410;-74
2022/12/27 08:10:50;;;;;;;14.13;3.78;;;;;;;;;;5012872;28;20069;-74
2022/12/27 08:13:16;;;;;;;15.90;3.88;;;;;;;;;;4995800;28;20041;-74
2022/12/27 08:15:43;;;;;;;13.88;3.40;;;;;;;;;;5015689;28;20497;-74
2022/12/27 08:18:09;;;;;;;11.38;3.33;;;;;;;;;;5000006;28;20050;-74
2022/12/27 08:20:35;;;;;;;11.82;3.78;;;;;;;;;;4996044;28;20145;-74
2022/12/27 08:23:01;;;;;;;12.23;3.83;;;;;;;;;;5028293;28;20436;-74
2022/12/27 08:25:28;;;;;;;11.00;3.40;;;;;;;;;;5002104;28;20054;-74
2022/12/27 08:28:07;;;;;;;12.95;3.40;;;;;;;;;;5013306;28;20046;-74
2022/12/27 08:30:33;;;;;;;12.02;3.03;;;;;;;;;;5013468;28;20049;-74
2022/12/27 08:33:03;;;;;;;11.82;3.20;;;;;;;;;;5013279;28;20046;-74
2022/12/27 08:35:32;;;;;;;10.32;2.90;;;;;;;;;;5001806;28;20101;-74
2022/12/27 08:38:01;;;;;;;10.50;3.03;;;;;;;;;;4996629;28;20046;-75
2022/12/27 08:40:27;;;;;;;9.40;3.47;;;;;;;;;;5003354;28;20045;-75
2022/12/27 08:42:53;;;;;;;11.82;3.33;;;;;;;;;;5020795;28;20483;-75
2022/12/27 08:45:19;;;;;;;10.20;3.50;;;;;;;;;;5016517;28;20442;-74
2022/12/27 08:47:45;;;;;;;10.60;3.30;;;;;;;;;;5017181;28;20050;-74
2022/12/27 08:50:11;;;;;;;10.88;3.70;;;;;;;;;;5015658;28;20141;-74
2022/12/27 08:52:38;;;;;;;11.40;3.10;;;;;;;;;;5016488;28;20506;-74
2022/12/27 08:55:04;;;;;;;14.85;3.20;;;;;;;;;;5017298;28;20530;-74
2022/12/27 08:57:30;;;;;;;9.50;2.72;;;;;;;;;;5017244;28;20062;-74
2022/12/27 08:59:56;;;;;;;12.63;4.07;;;;;;;;;;4998798;28;20038;-74
2022/12/27 09:02:22;;;;;;;9.75;3.78;;;;;;;;;;5000355;28;20486;-74
2022/12/27 09:04:48;;;;;;;9.27;3.22;;;;;;;;;;5013144;28;20077;-74
2022/12/27 09:07:14;;;;;;;13.00;3.28;;;;;;;;;;5006951;28;20045;-74
2022/12/27 09:09:40;;;;;;;10.32;2.63;;;;;;;;;;5016240;28;20053;-74
2022/12/27 09:12:06;;;;;;;10.15;3.10;;;;;;;;;;5016433;28;20046;-74
2022/12/27 09:14:32;;;;;;;12.35;3.40;;;;;;;;;;5010782;28;20042;-74
2022/12/27 09:16:58;;;;;;;9.90;3.13;;;;;;;;;;4978948;28;20053;-74
2022/12/27 09:19:24;;;;;;;4.53;2.70;;;;;;;;;;5013364;28;20050;-74
2022/12/27 09:21:50;;;;;;;16.27;2.95;;;;;;;;;;5014403;28;20413;-74
2022/12/27 09:24:16;;;;;;;12.00;3.20;;;;;;;;;;5015472;28;20486;-74
2022/12/27 09:26:42;;;;;;;10.02;3.03;;;;;;;;;;5016737;28;20046;-76
2022/12/27 09:29:10;;;;;;;12.48;3.13;;;;;;;;;;4998474;28;20592;-74
2022/12/27 09:31:36;;;;;;;13.40;2.80;;;;;;;;;;4997432;28;20045;-74
2022/12/27 09:34:02;;;;;;;15.75;3.20;;;;;;;;;;5015866;28;20526;-74
2022/12/27 09:36:28;;;;;;;16.85;3.75;;;;;;;;;;5011440;28;20402;-74
2022/12/27 09:38:56;;;;;;;9.15;3.30;;;;;;;;;;5016508;28;20065;-73
2022/12/27 09:41:25;;;;;;;11.25;3.20;;;;;;;;;;5036841;28;20041;-78
2022/12/27 09:43:57;;;;;;;10.05;3.08;;;;;;;;;;5038823;28;20052;-75
2022/12/27 09:46:38;;;;;;;9.73;2.97;;;;;;;;;;5023948;28;20060;-74
2022/12/27 09:49:04;;;;;;;9.13;2.90;;;;;;;;;;4996867;28;20042;-76
2022/12/27 09:51:40;;;;;;;10.88;2.72;;;;;;;;;;5007459;28;20124;-74
2022/12/27 09:54:06;;;;;;;;;;;;;;;;;;5016111;28;20117;-74
2022/12/27 09:56:33;;;;;;;11.23;2.57;;;;;;;;;;5015376;28;19921;-74
2022/12/27 09:59:18;;;;;;;12.65;2.90;;;;;;;;;;5016219;28;20042;-74
2022/12/27 10:01:46;;;;;;;9.75;2.65;;;;;;;;;;5021770;28;20541;-74
2022/12/27 10:04:13;;;;;;;10.65;3.47;;;;;;;;;;5022921;28;20084;-74
2022/12/27 10:06:42;;;;;;;10.57;3.20;;;;;;;;;;5017230;28;20042;-74
2022/12/27 10:09:11;;;;;;;10.38;3.22;;;;;;;;;;5010692;28;20563;-74
2022/12/27 10:11:48;;;;;;;9.60;3.53;;;;;;;;;;5014979;28;20041;-75
2022/12/27 10:14:14;;;;;;;11.52;3.45;;;;;;;;;;5020242;28;20068;-75
2022/12/27 10:16:47;;;;;;;11.88;2.63;;;;;;;;;;5020804;28;20581;-74
2022/12/27 10:19:28;;;;;;;9.93;3.22;;;;;;;;;;5024706;28;20056;-74
2022/12/27 10:22:02;;;;;;;9.88;2.90;;;;;;;;;;5005948;28;20042;-74
2022/12/27 10:24:37;;;;;;;8.05;2.80;;;;;;;;;;5012834;28;20046;-75
2022/12/27 10:27:08;;;;;;;8.60;2.90;;;;;;;;;;5015526;28;20501;-74
2022/12/27 10:29:35;;;;;;;11.10;3.20;;;;;;;;;;5015488;28;20038;-74
2022/12/27 10:32:02;;;;;;;12.40;3.00;;;;;;;;;;5014870;28;20053;-75
2022/12/27 10:34:29;;;;;;;10.00;3.53;;;;;;;;;;5014049;28;20049;-74
2022/12/27 10:36:55;;;;;;;8.02;2.53;;;;;;;;;;5014254;28;20371;-74
2022/12/27 10:39:27;;;;;;;9.88;2.63;;;;;;;;;;5015524;28;20128;-74
2022/12/27 10:41:53;;;;;;;6.35;2.95;;;;;;;;;;5014938;28;20378;-75
2022/12/27 10:44:22;;;;;;;11.38;3.03;;;;;;;;;;5015435;28;20042;-75
2022/12/27 10:46:50;;;;;;;8.73;2.78;;;;;;;;;;5014255;28;20438;-74
2022/12/27 10:49:24;;;;;;;11.55;2.70;;;;;;;;;;4979972;28;20049;-75
2022/12/27 10:51:51;;;;;;;8.35;2.75;;;;;;;;;;5016297;28;20052;-74
2022/12/27 10:54:28;;;;;;;9.27;2.92;;;;;;;;;;5007806;28;20056;-74
2022/12/27 10:56:54;;;;;;;10.65;2.63;;;;;;;;;;5014964;28;20033;-75
2022/12/27 10:59:25;;;;;;;10.88;2.65;;;;;;;;;;5013506;28;20045;-75
2022/12/27 11:02:11;;;;;;;10.90;2.83;;;;;;;;;;5014654;28;20046;-75
2022/12/27 11:04:54;;;;;;;9.20;2.45;;;;;;;;;;5007686;28;20071;-75
2022/12/27 11:07:20;;;;;;;10.73;2.70;;;;;;;;;;5013370;28;20042;-77
2022/12/27 11:09:46;;;;;;;9.07;2.92;;;;;;;;;;4996680;28;20053;-74
2022/12/27 11:12:15;;;;;;;8.10;3.00;;;;;;;;;;4994066;28;20046;-74
2022/12/27 11:15:00;;;;;;;8.73;2.63;;;;;;;;;;5001883;28;20514;-74
2022/12/27 11:17:31;;;;;;;7.80;2.67;;;;;;;;;;4996669;28;20064;-74
2022/12/27 11:19:59;;;;;;;8.52;2.90;;;;;;;;;;5002191;28;20042;-74
2022/12/27 11:22:25;;;;;;;11.10;2.65;;;;;;;;;;5013962;28;20042;-75
2022/12/27 11:24:59;;;;;;;8.75;3.10;;;;;;;;;;5014716;28;20505;-75
2022/12/27 11:27:28;;;;;;;8.55;3.15;;;;;;;;;;5014292;28;20042;-74
2022/12/27 11:29:56;;;;;;;6.10;2.90;;;;;;;;;;5014383;28;20112;-74
2022/12/27 11:32:22;;;;;;;10.80;2.95;;;;;;;;;;4996588;28;20430;-74
2022/12/27 11:34:50;;;;;;;11.93;2.80;;;;;;;;;;5015174;28;20034;-75
2022/12/27 11:37:18;;;;;;;11.65;2.95;;;;;;;;;;5014110;28;20513;-74
2022/12/27 11:39:46;;;;;;;10.63;2.90;;;;;;;;;;5007026;28;20049;-74
2022/12/27 11:42:12;;;;;;;6.28;2.97;;;;;;;;;;5014076;28;20121;-75
2022/12/27 11:44:40;;;;;;;7.10;2.67;;;;;;;;;;5007487;28;20134;-74
2022/12/27 11:47:12;;;;;;;8.35;3.00;;;;;;;;;;5014720;28;20517;-74
2022/12/27 11:49:58;;;;;;;10.75;2.70;;;;;;;;;;4996729;28;20045;-74
2022/12/27 11:52:52;;;;;;;8.85;2.92;;;;;;;;;;4975921;28;20065;-74
2022/12/27 11:55:36;;;;;;;9.32;2.70;;;;;;;;;;5006123;28;20041;-74
2022/12/27 11:58:21;;;;;;;8.75;2.95;;;;;;;;;;5007955;28;20093;-74
2022/12/27 12:01:06;;;;;;;10.93;2.75;;;;;;;;;;5000211;28;20038;-74
2022/12/27 12:03:44;;;;;;;9.07;3.05;;;;;;;;;;5012473;28;20038;-74
2022/12/27 12:06:28;;;;;;;12.50;2.63;;;;;;;;;;4996396;28;20042;-74
2022/12/27 12:09:13;;;;;;;8.93;3.22;;;;;;;;;;4991805;28;20402;-74
2022/12/27 12:11:57;;;;;;;7.75;2.67;;;;;;;;;;4974014;28;20043;-74
2022/12/27 12:14:39;;;;;;;8.73;2.50;;;;;;;;;;5000394;28;20048;-74
2022/12/27 12:17:24;;;;;;;8.82;2.92;;;;;;;;;;5015562;28;20120;-74
2022/12/27 12:19:53;;;;;;;9.18;3.15;;;;;;;;;;5011650;28;20129;-74
2022/12/27 12:22:25;;;;;;;8.38;2.75;;;;;;;;;;5012812;28;20360;-74
2022/12/27 12:25:10;;;;;;;9.77;3.33;;;;;;;;;;5013329;28;20045;-74
2022/12/27 12:27:42;;;;;;;9.88;3.45;;;;;;;;;;5009782;28;20391;-74
2022/12/27 12:30:17;;;;;;;9.77;3.65;;;;;;;;;;4994898;28;20159;-74
2022/12/27 12:33:02;;;;;;;7.10;2.97;;;;;;;;;;5009705;28;20046;-74
2022/12/27 12:35:31;;;;;;;9.90;3.00;;;;;;;;;;5006531;28;20057;-74
2022/12/27 12:38:12;;;;;;;12.20;3.35;;;;;;;;;;4994177;28;20041;-74
2022/12/27 12:40:57;;;;;;;9.40;2.83;;;;;;;;;;5013407;28;20073;-74
2022/12/27 12:43:35;;;;;;;11.25;2.65;;;;;;;;;;5003818;28;20061;-74
2022/12/27 12:46:22;;;;;;;7.63;2.75;;;;;;;;;;5007169;28;20072;-74
2022/12/27 12:49:03;;;;;;;9.65;3.10;;;;;;;;;;5012791;28;20052;-74
2022/12/27 12:51:34;;;;;;;9.55;3.35;;;;;;;;;;5012504;28;20069;-74
2022/12/27 12:54:03;;;;;;;11.02;3.42;;;;;;;;;;5007869;28;20053;-74
2022/12/27 12:56:29;;;;;;;10.15;3.28;;;;;;;;;;5012805;28;20177;-74
2022/12/27 12:59:07;;;;;;;11.68;2.72;;;;;;;;;;5009044;28;20461;-74
2022/12/27 13:01:33;;;;;;;8.10;3.22;;;;;;;;;;5005174;28;20054;-74
2022/12/27 13:04:35;;;;;;;7.38;2.50;;;;;;;;;;5011679;28;20042;-74
2022/12/27 13:07:19;;;;;;;9.00;2.97;;;;;;;;;;4934712;29;20435;-74
2022/12/27 13:09:52;;;;;;;7.18;2.25;;;;;;;;;;4953344;28;20130;-74
2022/12/27 13:12:28;;;;;;;11.82;2.75;;;;;;;;;;4936478;29;20051;-74
2022/12/27 13:14:54;;;;;;;;;;;;;;;;;;4941676;29;20057;-74
2022/12/27 13:17:23;;;;;;;11.80;2.60;;;;;;;;;;4936297;29;19934;-74
2022/12/27 13:20:09;;;;;;;7.30;2.60;;;;;;;;;;4951495;28;20493;-74
2022/12/27 13:22:46;;;;;;;6.43;2.97;;;;;;;;;;4940395;28;20391;-74
2022/12/27 13:25:18;;;;;;;9.55;2.75;;;;;;;;;;4953581;28;20134;-74
2022/12/27 13:27:51;;;;;;;12.85;3.03;;;;;;;;;;4956515;28;20055;-74
2022/12/27 13:30:19;;;;;;;8.57;3.35;;;;;;;;;;4952902;28;20419;-74
2022/12/27 13:32:55;;;;;;;10.95;3.95;;;;;;;;;;4960314;28;20119;-74
2022/12/27 13:35:30;;;;;;;9.60;4.63;;;;;;;;;;4954988;28;20043;-74
2022/12/27 13:38:08;;;;;;;16.40;9.55;;;;;;;;;;4956316;29;20484;-74
2022/12/27 13:40:43;;;;;;;18.27;10.50;;;;;;;;;;4972815;28;20069;-74
2022/12/27 13:43:29;;;;;;;15.48;9.88;;;;;;;;;;5015996;28;20049;-74
2022/12/27 13:46:14;;;;;;;17.45;9.77;;;;;;;;;;4995897;28;20104;-74
2022/12/27 13:48:52;;;;;;;12.82;7.25;;;;;;;;;;5016277;28;20042;-74
2022/12/27 13:51:34;;;;;;;15.88;9.82;;;;;;;;;;4992214;28;20049;-74
2022/12/27 13:54:00;;;;;;;14.60;8.13;;;;;;;;;;5016689;28;20099;-74
2022/12/27 13:56:33;;;;;;;13.77;7.35;;;;;;;;;;5016281;28;20045;-74
2022/12/27 13:59:18;;;;;;;11.80;5.72;;;;;;;;;;5008435;28;20049;-74
2022/12/27 14:01:49;;;;;;;10.45;4.97;;;;;;;;;;5009307;28;20450;-74
2022/12/27 14:04:19;;;;;;;10.23;5.22;;;;;;;;;;5014310;28;20046;-74
2022/12/27 14:07:00;;;;;;;13.27;5.22;;;;;;;;;;4976425;28;20048;-74
2022/12/27 14:09:39;;;;;;;11.73;5.00;;;;;;;;;;4992292;28;20041;-74
2022/12/27 14:12:08;;;;;;;12.23;5.60;;;;;;;;;;4987269;28;20053;-74
2022/12/27 14:14:36;;;;;;;13.10;7.30;;;;;;;;;;4998054;28;20567;-75
2022/12/27 14:17:11;;;;;;;14.05;8.00;;;;;;;;;;5014745;28;20045;-77
2022/12/27 14:19:40;;;;;;;12.55;6.35;;;;;;;;;;4978387;28;20050;-76
2022/12/27 14:22:06;;;;;;;12.10;6.53;;;;;;;;;;4993649;28;20046;-76
2022/12/27 14:24:50;;;;;;;12.90;5.43;;;;;;;;;;5011378;28;20038;-76
2022/12/27 14:27:31;;;;;;;13.50;5.75;;;;;;;;;;5001713;28;20498;-76
2022/12/27 14:30:16;;;;;;;9.52;6.03;;;;;;;;;;5011867;28;20530;-76
2022/12/27 14:32:56;;;;;;;13.43;6.20;;;;;;;;;;5016025;28;20116;-76
2022/12/27 14:35:35;;;;;;;17.92;8.45;;;;;;;;;;4981037;28;20045;-76
2022/12/27 14:38:20;;;;;;;14.82;8.02;;;;;;;;;;5000595;28;20134;-76
2022/12/27 14:40:58;;;;;;;11.07;6.57;;;;;;;;;;5014296;28;20037;-77
2022/12/27 14:43:42;;;;;;;13.73;5.65;;;;;;;;;;5011936;28;20104;-76
2022/12/27 14:46:27;;;;;;;17.15;7.45;;;;;;;;;;5012609;28;20046;-76
2022/12/27 14:49:11;;;;;;;15.80;7.15;;;;;;;;;;5002035;28;20100;-76
2022/12/27 14:51:43;;;;;;;19.83;10.25;;;;;;;;;;5014767;28;20124;-76
2022/12/27 14:54:30;;;;;;;15.23;7.20;;;;;;;;;;5014240;28;20053;-76
2022/12/27 14:56:56;;;;;;;15.27;6.82;;;;;;;;;;5008055;28;20049;-76
2022/12/27 14:59:32;;;;;;;28.15;10.15;;;;;;;;;;5003313;28;20034;-76
2022/12/27 15:02:09;;;;;;;20.35;9.40;;;;;;;;;;4997743;28;20042;-75
2022/12/27 15:04:35;;;;;;;27.45;13.13;;;;;;;;;;5014501;28;20383;-75
2022/12/27 15:07:14;;;;;;;25.05;13.05;;;;;;;;;;5013591;28;20521;-75
2022/12/27 15:09:52;;;;;;;33.83;13.77;;;;;;;;;;4996672;28;20050;-76
2022/12/27 15:12:18;;;;;;;33.80;13.82;;;;;;;;;;4995274;28;20046;-75
2022/12/27 15:14:59;;;;;;;40.33;28.50;;;;;;;;;;4994902;28;20042;-76
2022/12/27 15:17:28;;;;;;;18.75;12.82;;;;;;;;;;4990493;28;20402;-76
2022/12/27 15:20:09;;;;;;;25.00;12.93;;;;;;;;;;5010291;28;20049;-76
2022/12/27 15:22:44;;;;;;;27.23;13.10;;;;;;;;;;4996129;28;20060;-76
2022/12/27 15:25:13;;;;;;;26.63;12.68;;;;;;;;;;4997027;28;20050;-75
2022/12/27 15:27:42;;;;;;;30.60;15.45;;;;;;;;;;4994227;28;20041;-75
2022/12/27 15:30:08;;;;;;;34.88;17.33;;;;;;;;;;4995905;28;20046;-76
2022/12/27 15:32:46;;;;;;;22.67;12.25;;;;;;;;;;4997889;28;20042;-74
2022/12/27 15:35:29;;;;;;;32.72;15.43;;;;;;;;;;4999908;28;20404;-74
2022/12/27 15:38:16;;;;;;;43.60;18.77;;;;;;;;;;4996538;28;20042;-75
2022/12/27 15:41:01;;;;;;;34.10;13.88;;;;;;;;;;4996660;28;20146;-75
2022/12/27 15:43:47;;;;;;;35.30;15.60;;;;;;;;;;4995547;28;20054;-74
2022/12/27 15:46:36;;;;;;;41.10;18.05;;;;;;;;;;5013019;28;20132;-74
2022/12/27 15:49:16;;;;;;;45.42;19.15;;;;;;;;;;5013375;28;20478;-74
2022/12/27 15:51:49;;;;;;;44.20;16.65;;;;;;;;;;5013290;28;20061;-74
2022/12/27 15:54:24;;;;;;;29.02;14.23;;;;;;;;;;5013088;28;20045;-74
2022/12/27 15:57:02;;;;;;;31.33;14.02;;;;;;;;;;4995899;28;20137;-75
2022/12/27 15:59:37;;;;;;;31.10;16.85;;;;;;;;;;5012493;28;20486;-74
2022/12/27 16:02:22;;;;;;;27.88;13.85;;;;;;;;;;4994736;28;20077;-74
2022/12/27 16:05:01;;;;;;;34.08;15.88;;;;;;;;;;5009422;28;20124;-74
2022/12/27 16:07:38;;;;;;;32.72;15.70;;;;;;;;;;5002969;28;20042;-74
2022/12/27 16:10:23;;;;;;;31.65;14.63;;;;;;;;;;4995088;28;20076;-74
2022/12/27 16:12:49;;;;;;;61.38;22.58;;;;;;;;;;4991210;28;20048;-74
2022/12/27 16:15:34;;;;;;;31.02;14.65;;;;;;;;;;4993826;28;20046;-74
2022/12/27 16:18:00;;;;;;;35.63;15.40;;;;;;;;;;5006184;28;20052;-74
2022/12/27 16:20:27;;;;;;;58.65;21.83;;;;;;;;;;5001872;28;20053;-74
2022/12/27 16:22:56;;;;;;;36.28;15.80;;;;;;;;;;5004952;28;20038;-74
2022/12/27 16:25:25;;;;;;;35.47;16.52;;;;;;;;;;5010077;28;20061;-74
2022/12/27 16:28:05;;;;;;;37.63;17.48;;;;;;;;;;4995569;28;20104;-74
2022/12/27 16:30:35;;;;;;;34.92;15.55;;;;;;;;;;5011939;28;20131;-74
2022/12/27 16:33:02;;;;;;;23.13;13.65;;;;;;;;;;5013644;28;20048;-74
2022/12/27 16:35:29;;;;;;;20.90;11.70;;;;;;;;;;5012748;28;20045;-73